sensor_id;sensor_type;location;lat;lon;timestamp;temperature;humidity
74513;DHT22;62992;52.052;8.550;2022-09-27T00:02:16;10.50;99.90
74513;DHT22;62992;52.052;8.550;2022-09-27T00:04:41;10.40;99.90
74513;DHT22;62992;52.052;8.550;2022-09-27T00:07:07;10.50;99.90
74513;DHT22;62992;52.052;8.550;2022-09-27T00:09:35;10.50;99.90
74513;DHT22;62992;52.052;8.550;2022-09-27T00:12:01;10.50;99.90
74513;DHT22;62992;52.052;8.550;2022-09-27T00:14:27;10.50;99.90
74513;DHT22;62992;52.052;8.550;2022-09-27T00:16:52;10.50;99.90
74513;DHT22;62992;52.052;8.550;2022-09-27T00:19:22;10.50;99.90
74513;DHT22;62992;52.052;8.550;2022-09-27T00:21:50;10.50;99.90
74513;DHT22;62992;52.052;8.550;2022-09-27T00:24:20;10.50;99.90
74513;DHT22;62992;52.052;8.550;2022-09-27T00:26:47;10.50;99.90
74513;DHT22;62992;52.052;8.550;2022-09-27T00:29:14;10.50;99.90
74513;DHT22;62992;52.052;8.550;2022-09-27T00:31:40;10.50;99.90
74513;DHT22;62992;52.052;8.550;2022-09-27T00:34:09;10.50;99.90
74513;DHT22;62992;52.052;8.550;2022-09-27T00:36:36;10.50;99.90
74513;DHT22;62992;52.052;8.550;2022-09-27T00:39:02;10.50;99.90
74513;DHT22;62992;52.052;8.550;2022-09-27T00:41:30;10.50;99.90
74513;DHT22;62992;52.052;8.550;2022-09-27T00:44:57;10.50;99.90
74513;DHT22;62992;52.052;8.550;2022-09-27T00:55:03;10.50;99.90
74513;DHT22;62992;52.052;8.550;2022-09-27T00:57:31;10.50;99.90
74513;DHT22;62992;52.052;8.550;2022-09-27T01:00:04;10.60;99.90
74513;DHT22;62992;52.052;8.550;2022-09-27T01:02:30;10.60;99.90
74513;DHT22;62992;52.052;8.550;2022-09-27T01:04:57;10.60;99.90
74513;DHT22;62992;52.052;8.550;2022-09-27T01:07:23;10.50;99.90
74513;DHT22;62992;52.052;8.550;2022-09-27T01:09:49;10.50;99.90
74513;DHT22;62992;52.052;8.550;2022-09-27T01:15:20;10.50;99.90
74513;DHT22;62992;52.052;8.550;2022-09-27T01:32:02;10.50;99.90
74513;DHT22;62992;52.052;8.550;2022-09-27T01:34:46;10.50;99.90
74513;DHT22;62992;52.052;8.550;2022-09-27T01:40:32;10.50;99.90
74513;DHT22;62992;52.052;8.550;2022-09-27T01:48:42;10.50;99.90
74513;DHT22;62992;52.052;8.550;2022-09-27T01:51:30;10.50;99.90
74513;DHT22;62992;52.052;8.550;2022-09-27T01:54:01;10.40;99.90
74513;DHT22;62992;52.052;8.550;2022-09-27T01:56:33;10.40;99.90
74513;DHT22;62992;52.052;8.550;2022-09-27T01:59:05;10.50;99.90
74513;DHT22;62992;52.052;8.550;2022-09-27T02:01:33;10.40;99.90
74513;DHT22;62992;52.052;8.550;2022-09-27T02:04:01;10.40;99.90
74513;DHT22;62992;52.052;8.550;2022-09-27T02:06:35;10.40;99.90
74513;DHT22;62992;52.052;8.550;2022-09-27T02:09:18;10.50;99.90
74513;DHT22;62992;52.052;8.550;2022-09-27T02:11:50;10.50;99.90
74513;DHT22;62992;52.052;8.550;2022-09-27T02:14:46;10.40;99.90
74513;DHT22;62992;52.052;8.550;2022-09-27T02:22:36;10.40;99.90
74513;DHT22;62992;52.052;8.550;2022-09-27T02:25:24;10.40;99.90
74513;DHT22;62992;52.052;8.550;2022-09-27T02:30:30;10.40;99.90
74513;DHT22;62992;52.052;8.550;2022-09-27T02:32:55;10.40;99.90
74513;DHT22;62992;52.052;8.550;2022-09-27T02:35:27;10.40;99.90
74513;DHT22;62992;52.052;8.550;2022-09-27T02:37:55;10.40;99.90
74513;DHT22;62992;52.052;8.550;2022-09-27T02:40:21;10.30;99.90
74513;DHT22;62992;52.052;8.550;2022-09-27T02:42:47;10.30;99.90
74513;DHT22;62992;52.052;8.550;2022-09-27T02:45:15;10.30;99.90
74513;DHT22;62992;52.052;8.550;2022-09-27T02:48:14;10.40;99.90
74513;DHT22;62992;52.052;8.550;2022-09-27T02:51:08;10.30;99.90
74513;DHT22;62992;52.052;8.550;2022-09-27T02:59:05;10.30;99.90
74513;DHT22;62992;52.052;8.550;2022-09-27T03:04:49;10.30;99.90
74513;DHT22;62992;52.052;8.550;2022-09-27T03:07:17;10.30;99.90
74513;DHT22;62992;52.052;8.550;2022-09-27T03:09:48;10.30;99.90
74513;DHT22;62992;52.052;8.550;2022-09-27T03:12:15;10.30;99.90
74513;DHT22;62992;52.052;8.550;2022-09-27T03:14:51;10.30;99.90
74513;DHT22;62992;52.052;8.550;2022-09-27T03:17:17;10.20;99.90
74513;DHT22;62992;52.052;8.550;2022-09-27T03:19:42;10.20;99.90
74513;DHT22;62992;52.052;8.550;2022-09-27T03:22:08;10.20;99.90
74513;DHT22;62992;52.052;8.550;2022-09-27T03:24:34;10.20;99.90
74513;DHT22;62992;52.052;8.550;2022-09-27T03:26:59;10.20;99.90
74513;DHT22;62992;52.052;8.550;2022-09-27T03:29:25;10.20;99.90
74513;DHT22;62992;52.052;8.550;2022-09-27T03:31:50;10.20;99.90
74513;DHT22;62992;52.052;8.550;2022-09-27T03:34:16;10.20;99.90
74513;DHT22;62992;52.052;8.550;2022-09-27T03:36:42;10.20;99.90
74513;DHT22;62992;52.052;8.550;2022-09-27T03:39:07;10.20;99.90
74513;DHT22;62992;52.052;8.550;2022-09-27T03:41:33;10.20;99.90
74513;DHT22;62992;52.052;8.550;2022-09-27T03:43:59;10.20;99.90
74513;DHT22;62992;52.052;8.550;2022-09-27T03:46:25;10.20;99.90
74513;DHT22;62992;52.052;8.550;2022-09-27T03:48:51;10.20;99.90
74513;DHT22;62992;52.052;8.550;2022-09-27T03:51:17;10.20;99.90
74513;DHT22;62992;52.052;8.550;2022-09-27T03:53:43;10.20;99.90
74513;DHT22;62992;52.052;8.550;2022-09-27T03:56:09;10.20;99.90
74513;DHT22;62992;52.052;8.550;2022-09-27T03:58:34;10.20;99.90
74513;DHT22;62992;52.052;8.550;2022-09-27T04:01:00;10.10;99.90
74513;DHT22;62992;52.052;8.550;2022-09-27T04:03:26;10.20;99.90
74513;DHT22;62992;52.052;8.550;2022-09-27T04:05:52;10.10;99.90
74513;DHT22;62992;52.052;8.550;2022-09-27T04:08:18;10.10;99.90
74513;DHT22;62992;52.052;8.550;2022-09-27T04:10:45;10.10;99.90
74513;DHT22;62992;52.052;8.550;2022-09-27T04:13:11;10.10;99.90
74513;DHT22;62992;52.052;8.550;2022-09-27T04:15:36;10.10;99.90
74513;DHT22;62992;52.052;8.550;2022-09-27T04:18:04;10.00;99.90
74513;DHT22;62992;52.052;8.550;2022-09-27T04:20:30;10.00;99.90
74513;DHT22;62992;52.052;8.550;2022-09-27T04:22:56;9.90;99.90
74513;DHT22;62992;52.052;8.550;2022-09-27T04:25:21;9.90;99.90
74513;DHT22;62992;52.052;8.550;2022-09-27T04:27:47;9.90;99.90
74513;DHT22;62992;52.052;8.550;2022-09-27T04:30:14;9.90;99.90
74513;DHT22;62992;52.052;8.550;2022-09-27T04:32:48;9.90;99.90
74513;DHT22;62992;52.052;8.550;2022-09-27T04:35:14;9.90;99.90
74513;DHT22;62992;52.052;8.550;2022-09-27T04:37:58;9.90;99.90
74513;DHT22;62992;52.052;8.550;2022-09-27T04:40:24;9.90;99.90
74513;DHT22;62992;52.052;8.550;2022-09-27T04:42:51;9.90;99.90
74513;DHT22;62992;52.052;8.550;2022-09-27T04:45:17;9.90;99.90
74513;DHT22;62992;52.052;8.550;2022-09-27T04:47:48;9.90;99.90
74513;DHT22;62992;52.052;8.550;2022-09-27T04:50:14;9.90;99.90
74513;DHT22;62992;52.052;8.550;2022-09-27T04:52:42;9.90;99.90
74513;DHT22;62992;52.052;8.550;2022-09-27T04:55:09;9.90;99.90
74513;DHT22;62992;52.052;8.550;2022-09-27T04:57:35;9.80;99.90
74513;DHT22;62992;52.052;8.550;2022-09-27T05:00:01;9.90;99.90
74513;DHT22;62992;52.052;8.550;2022-09-27T05:02:27;9.80;99.90
74513;DHT22;62992;52.052;8.550;2022-09-27T05:04:54;9.90;99.90
74513;DHT22;62992;52.052;8.550;2022-09-27T05:07:24;9.90;99.90
74513;DHT22;62992;52.052;8.550;2022-09-27T05:09:50;9.80;99.90
74513;DHT22;62992;52.052;8.550;2022-09-27T05:12:16;9.80;99.90
74513;DHT22;62992;52.052;8.550;2022-09-27T05:14:41;9.80;99.90
74513;DHT22;62992;52.052;8.550;2022-09-27T05:17:07;9.80;99.90
74513;DHT22;62992;52.052;8.550;2022-09-27T05:19:33;9.80;99.90
74513;DHT22;62992;52.052;8.550;2022-09-27T05:21:59;9.80;99.90
74513;DHT22;62992;52.052;8.550;2022-09-27T05:24:25;9.80;99.90
74513;DHT22;62992;52.052;8.550;2022-09-27T05:26:53;9.80;99.90
74513;DHT22;62992;52.052;8.550;2022-09-27T05:29:19;9.70;99.90
74513;DHT22;62992;52.052;8.550;2022-09-27T05:31:44;9.70;99.90
74513;DHT22;62992;52.052;8.550;2022-09-27T05:34:10;9.70;99.90
74513;DHT22;62992;52.052;8.550;2022-09-27T05:36:36;9.70;99.90
74513;DHT22;62992;52.052;8.550;2022-09-27T05:39:03;9.70;99.90
74513;DHT22;62992;52.052;8.550;2022-09-27T05:41:28;9.70;99.90
74513;DHT22;62992;52.052;8.550;2022-09-27T05:43:54;9.60;99.90
74513;DHT22;62992;52.052;8.550;2022-09-27T05:46:20;9.70;99.90
74513;DHT22;62992;52.052;8.550;2022-09-27T05:48:46;9.70;99.90
74513;DHT22;62992;52.052;8.550;2022-09-27T05:51:11;9.70;99.90
74513;DHT22;62992;52.052;8.550;2022-09-27T05:53:37;9.70;99.90
74513;DHT22;62992;52.052;8.550;2022-09-27T05:56:04;9.70;99.90
74513;DHT22;62992;52.052;8.550;2022-09-27T05:58:30;9.70;99.90
74513;DHT22;62992;52.052;8.550;2022-09-27T06:00:55;9.80;99.90
74513;DHT22;62992;52.052;8.550;2022-09-27T06:03:21;9.80;99.90
74513;DHT22;62992;52.052;8.550;2022-09-27T06:05:47;9.70;99.90
74513;DHT22;62992;52.052;8.550;2022-09-27T06:08:13;9.70;99.90
74513;DHT22;62992;52.052;8.550;2022-09-27T06:10:39;9.70;99.90
74513;DHT22;62992;52.052;8.550;2022-09-27T06:13:10;9.70;99.90
74513;DHT22;62992;52.052;8.550;2022-09-27T06:15:37;9.80;99.90
74513;DHT22;62992;52.052;8.550;2022-09-27T06:18:12;9.80;99.90
74513;DHT22;62992;52.052;8.550;2022-09-27T06:20:40;9.70;99.90
74513;DHT22;62992;52.052;8.550;2022-09-27T06:23:16;9.70;99.90
74513;DHT22;62992;52.052;8.550;2022-09-27T06:25:43;9.80;99.90
74513;DHT22;62992;52.052;8.550;2022-09-27T06:28:09;9.80;99.90
74513;DHT22;62992;52.052;8.550;2022-09-27T06:30:44;9.80;99.90
74513;DHT22;62992;52.052;8.550;2022-09-27T06:33:12;9.80;99.90
74513;DHT22;62992;52.052;8.550;2022-09-27T06:35:38;9.70;99.90
74513;DHT22;62992;52.052;8.550;2022-09-27T06:38:05;9.70;99.90
74513;DHT22;62992;52.052;8.550;2022-09-27T06:40:33;9.70;99.90
74513;DHT22;62992;52.052;8.550;2022-09-27T06:43:07;9.60;99.90
74513;DHT22;62992;52.052;8.550;2022-09-27T06:45:33;9.70;99.90
74513;DHT22;62992;52.052;8.550;2022-09-27T06:48:01;9.60;99.90
74513;DHT22;62992;52.052;8.550;2022-09-27T06:50:37;9.70;99.90
74513;DHT22;62992;52.052;8.550;2022-09-27T06:53:04;9.70;99.90
74513;DHT22;62992;52.052;8.550;2022-09-27T06:55:30;9.70;99.90
74513;DHT22;62992;52.052;8.550;2022-09-27T06:57:57;9.70;99.90
74513;DHT22;62992;52.052;8.550;2022-09-27T07:00:42;9.80;99.90
74513;DHT22;62992;52.052;8.550;2022-09-27T07:03:09;9.90;99.90
74513;DHT22;62992;52.052;8.550;2022-09-27T07:05:36;10.30;99.90
74513;DHT22;62992;52.052;8.550;2022-09-27T07:08:02;10.10;99.90
74513;DHT22;62992;52.052;8.550;2022-09-27T07:10:30;10.80;99.90
74513;DHT22;62992;52.052;8.550;2022-09-27T07:13:06;11.80;99.90
74513;DHT22;62992;52.052;8.550;2022-09-27T07:15:36;11.40;99.90
74513;DHT22;62992;52.052;8.550;2022-09-27T07:18:03;11.60;99.90
74513;DHT22;62992;52.052;8.550;2022-09-27T07:20:29;11.00;99.90
74513;DHT22;62992;52.052;8.550;2022-09-27T07:22:55;13.20;99.90
74513;DHT22;62992;52.052;8.550;2022-09-27T07:25:21;13.90;99.90
74513;DHT22;62992;52.052;8.550;2022-09-27T07:27:47;16.80;99.90
74513;DHT22;62992;52.052;8.550;2022-09-27T07:30:13;14.60;99.90
74513;DHT22;62992;52.052;8.550;2022-09-27T07:32:39;13.40;99.90
74513;DHT22;62992;52.052;8.550;2022-09-27T07:35:06;16.80;99.90
74513;DHT22;62992;52.052;8.550;2022-09-27T07:37:34;16.80;99.90
74513;DHT22;62992;52.052;8.550;2022-09-27T07:40:01;14.50;99.90
74513;DHT22;62992;52.052;8.550;2022-09-27T07:42:27;13.40;99.90
74513;DHT22;62992;52.052;8.550;2022-09-27T07:44:54;12.20;99.90
74513;DHT22;62992;52.052;8.550;2022-09-27T07:47:21;11.80;99.90
74513;DHT22;62992;52.052;8.550;2022-09-27T07:49:49;11.40;99.90
74513;DHT22;62992;52.052;8.550;2022-09-27T07:52:20;11.10;99.90
74513;DHT22;62992;52.052;8.550;2022-09-27T07:54:46;11.00;99.90
74513;DHT22;62992;52.052;8.550;2022-09-27T07:57:13;11.00;99.90
74513;DHT22;62992;52.052;8.550;2022-09-27T07:59:39;10.90;99.90
74513;DHT22;62992;52.052;8.550;2022-09-27T08:02:05;11.30;99.90
74513;DHT22;62992;52.052;8.550;2022-09-27T08:04:31;11.40;99.90
74513;DHT22;62992;52.052;8.550;2022-09-27T08:06:57;11.30;99.90
74513;DHT22;62992;52.052;8.550;2022-09-27T08:09:23;11.10;99.90
74513;DHT22;62992;52.052;8.550;2022-09-27T08:11:50;11.10;99.90
74513;DHT22;62992;52.052;8.550;2022-09-27T08:14:16;11.00;99.90
74513;DHT22;62992;52.052;8.550;2022-09-27T08:16:43;10.90;99.90
74513;DHT22;62992;52.052;8.550;2022-09-27T08:19:08;10.90;99.90
74513;DHT22;62992;52.052;8.550;2022-09-27T08:21:35;10.80;99.90
74513;DHT22;62992;52.052;8.550;2022-09-27T08:24:01;10.90;99.90
74513;DHT22;62992;52.052;8.550;2022-09-27T08:26:28;10.90;99.90
74513;DHT22;62992;52.052;8.550;2022-09-27T08:28:54;11.00;99.90
74513;DHT22;62992;52.052;8.550;2022-09-27T08:31:19;11.20;99.90
74513;DHT22;62992;52.052;8.550;2022-09-27T08:33:51;11.20;99.90
74513;DHT22;62992;52.052;8.550;2022-09-27T08:36:18;11.00;99.90
74513;DHT22;62992;52.052;8.550;2022-09-27T08:38:50;11.00;99.90
74513;DHT22;62992;52.052;8.550;2022-09-27T08:44:38;10.90;99.90
74513;DHT22;62992;52.052;8.550;2022-09-27T08:49:58;10.90;99.90
74513;DHT22;62992;52.052;8.550;2022-09-27T08:52:30;11.00;99.90
74513;DHT22;62992;52.052;8.550;2022-09-27T08:55:01;10.90;99.90
74513;DHT22;62992;52.052;8.550;2022-09-27T08:57:27;10.80;99.90
74513;DHT22;62992;52.052;8.550;2022-09-27T09:00:12;10.70;99.90
74513;DHT22;62992;52.052;8.550;2022-09-27T09:02:40;10.70;99.90
74513;DHT22;62992;52.052;8.550;2022-09-27T09:05:13;10.80;99.90
74513;DHT22;62992;52.052;8.550;2022-09-27T09:17:02;11.40;99.90
74513;DHT22;62992;52.052;8.550;2022-09-27T09:19:54;11.30;99.90
74513;DHT22;62992;52.052;8.550;2022-09-27T09:25:39;11.60;99.90
74513;DHT22;62992;52.052;8.550;2022-09-27T09:28:28;11.60;99.90
74513;DHT22;62992;52.052;8.550;2022-09-27T09:34:24;11.40;99.90
74513;DHT22;62992;52.052;8.550;2022-09-27T09:37:00;11.60;99.90
74513;DHT22;62992;52.052;8.550;2022-09-27T09:39:44;11.80;99.90
74513;DHT22;62992;52.052;8.550;2022-09-27T09:42:24;12.00;99.90
74513;DHT22;62992;52.052;8.550;2022-09-27T09:45:01;11.80;99.90
74513;DHT22;62992;52.052;8.550;2022-09-27T09:50:12;11.50;99.90
74513;DHT22;62992;52.052;8.550;2022-09-27T09:52:44;12.10;99.90
74513;DHT22;62992;52.052;8.550;2022-09-27T09:55:20;12.70;99.90
74513;DHT22;62992;52.052;8.550;2022-09-27T09:58:07;13.50;99.90
74513;DHT22;62992;52.052;8.550;2022-09-27T10:00:39;14.50;99.90
74513;DHT22;62992;52.052;8.550;2022-09-27T10:03:05;15.30;99.90
74513;DHT22;62992;52.052;8.550;2022-09-27T10:05:31;14.70;99.90
74513;DHT22;62992;52.052;8.550;2022-09-27T10:08:01;14.70;99.90
74513;DHT22;62992;52.052;8.550;2022-09-27T10:10:27;14.00;99.90
74513;DHT22;62992;52.052;8.550;2022-09-27T10:12:54;13.90;99.90
74513;DHT22;62992;52.052;8.550;2022-09-27T10:15:22;13.80;99.90
74513;DHT22;62992;52.052;8.550;2022-09-27T10:17:50;13.60;99.90
74513;DHT22;62992;52.052;8.550;2022-09-27T10:20:48;13.50;99.90
74513;DHT22;62992;52.052;8.550;2022-09-27T10:23:20;13.20;99.90
74513;DHT22;62992;52.052;8.550;2022-09-27T10:25:53;12.90;99.90
74513;DHT22;62992;52.052;8.550;2022-09-27T10:31:07;11.60;99.90
74513;DHT22;62992;52.052;8.550;2022-09-27T10:33:34;11.20;99.90
74513;DHT22;62992;52.052;8.550;2022-09-27T10:36:02;11.10;99.90
74513;DHT22;62992;52.052;8.550;2022-09-27T10:38:33;10.90;99.90
74513;DHT22;62992;52.052;8.550;2022-09-27T10:43:52;10.90;99.90
74513;DHT22;62992;52.052;8.550;2022-09-27T10:48:43;10.80;99.90
74513;DHT22;62992;52.052;8.550;2022-09-27T10:51:29;10.80;99.90
74513;DHT22;62992;52.052;8.550;2022-09-27T10:53:55;10.80;99.90
74513;DHT22;62992;52.052;8.550;2022-09-27T10:56:30;10.60;99.90
74513;DHT22;62992;52.052;8.550;2022-09-27T10:58:57;10.50;99.90
74513;DHT22;62992;52.052;8.550;2022-09-27T11:01:25;10.40;99.90
74513;DHT22;62992;52.052;8.550;2022-09-27T11:03:57;11.00;99.90
74513;DHT22;62992;52.052;8.550;2022-09-27T11:08:50;12.50;99.90
74513;DHT22;62992;52.052;8.550;2022-09-27T11:11:24;13.40;99.90
74513;DHT22;62992;52.052;8.550;2022-09-27T11:14:19;13.50;99.90
74513;DHT22;62992;52.052;8.550;2022-09-27T11:19:35;12.70;99.90
74513;DHT22;62992;52.052;8.550;2022-09-27T11:32:58;13.40;99.90
74513;DHT22;62992;52.052;8.550;2022-09-27T11:35:36;12.90;99.90
74513;DHT22;62992;52.052;8.550;2022-09-27T11:44:18;12.90;99.90
74513;DHT22;62992;52.052;8.550;2022-09-27T11:49:48;13.90;99.90
74513;DHT22;62992;52.052;8.550;2022-09-27T11:58:00;13.60;99.90
74513;DHT22;62992;52.052;8.550;2022-09-27T12:07:13;13.30;99.90
74513;DHT22;62992;52.052;8.550;2022-09-27T12:09:22;13.30;99.90
74513;DHT22;62992;52.052;8.550;2022-09-27T12:14:57;14.10;99.90
74513;DHT22;62992;52.052;8.550;2022-09-27T12:17:36;13.70;99.90
74513;DHT22;62992;52.052;8.550;2022-09-27T12:20:08;13.40;99.90
74513;DHT22;62992;52.052;8.550;2022-09-27T12:22:51;13.40;99.90
74513;DHT22;62992;52.052;8.550;2022-09-27T12:25:19;13.50;99.90
74513;DHT22;62992;52.052;8.550;2022-09-27T12:31:03;13.50;99.90
74513;DHT22;62992;52.052;8.550;2022-09-27T12:33:40;13.70;99.90
74513;DHT22;62992;52.052;8.550;2022-09-27T12:36:09;13.70;99.90
74513;DHT22;62992;52.052;8.550;2022-09-27T12:38:42;13.90;99.90
74513;DHT22;62992;52.052;8.550;2022-09-27T12:41:15;14.10;99.90
74513;DHT22;62992;52.052;8.550;2022-09-27T12:43:44;14.20;99.90
74513;DHT22;62992;52.052;8.550;2022-09-27T12:46:38;14.00;99.90
74513;DHT22;62992;52.052;8.550;2022-09-27T12:50:22;14.00;99.90
74513;DHT22;62992;52.052;8.550;2022-09-27T12:52:18;14.00;99.90
74513;DHT22;62992;52.052;8.550;2022-09-27T12:58:29;13.50;99.90
74513;DHT22;62992;52.052;8.550;2022-09-27T13:00:54;13.40;99.90
74513;DHT22;62992;52.052;8.550;2022-09-27T13:09:27;13.00;99.90
74513;DHT22;62992;52.052;8.550;2022-09-27T13:14:32;13.30;99.90
74513;DHT22;62992;52.052;8.550;2022-09-27T13:16:58;13.40;99.90
74513;DHT22;62992;52.052;8.550;2022-09-27T13:19:37;13.30;99.90
74513;DHT22;62992;52.052;8.550;2022-09-27T13:24:46;13.00;99.90
74513;DHT22;62992;52.052;8.550;2022-09-27T13:29:48;13.40;99.90
74513;DHT22;62992;52.052;8.550;2022-09-27T13:32:24;13.50;99.90
74513;DHT22;62992;52.052;8.550;2022-09-27T13:34:55;13.40;99.90
74513;DHT22;62992;52.052;8.550;2022-09-27T13:37:51;13.20;99.90
74513;DHT22;62992;52.052;8.550;2022-09-27T13:45:48;12.10;99.90
74513;DHT22;62992;52.052;8.550;2022-09-27T13:48:18;11.40;99.90
74513;DHT22;62992;52.052;8.550;2022-09-27T13:50:49;11.30;99.90
74513;DHT22;62992;52.052;8.550;2022-09-27T13:53:35;11.20;99.90
74513;DHT22;62992;52.052;8.550;2022-09-27T13:56:02;11.10;99.90
74513;DHT22;62992;52.052;8.550;2022-09-27T14:03:44;11.20;99.90
74513;DHT22;62992;52.052;8.550;2022-09-27T14:06:16;11.30;99.90
74513;DHT22;62992;52.052;8.550;2022-09-27T14:08:49;11.30;99.90
74513;DHT22;62992;52.052;8.550;2022-09-27T14:11:24;11.40;99.90
74513;DHT22;62992;52.052;8.550;2022-09-27T14:13:51;11.60;99.90
74513;DHT22;62992;52.052;8.550;2022-09-27T14:16:17;11.90;99.90
74513;DHT22;62992;52.052;8.550;2022-09-27T14:18:56;12.10;99.90
74513;DHT22;62992;52.052;8.550;2022-09-27T14:23:50;12.10;99.90
74513;DHT22;62992;52.052;8.550;2022-09-27T14:26:22;12.10;99.90
74513;DHT22;62992;52.052;8.550;2022-09-27T14:28:48;12.10;99.90
74513;DHT22;62992;52.052;8.550;2022-09-27T14:31:17;11.90;99.90
74513;DHT22;62992;52.052;8.550;2022-09-27T14:33:44;11.90;99.90
74513;DHT22;62992;52.052;8.550;2022-09-27T14:36:29;12.10;99.90
74513;DHT22;62992;52.052;8.550;2022-09-27T14:39:27;12.30;99.90
74513;DHT22;62992;52.052;8.550;2022-09-27T14:41:55;12.30;99.90
74513;DHT22;62992;52.052;8.550;2022-09-27T14:44:21;12.20;99.90
74513;DHT22;62992;52.052;8.550;2022-09-27T14:47:14;12.20;99.90
74513;DHT22;62992;52.052;8.550;2022-09-27T14:49:52;12.10;99.90
74513;DHT22;62992;52.052;8.550;2022-09-27T14:52:22;11.90;99.90
74513;DHT22;62992;52.052;8.550;2022-09-27T14:54:58;11.80;99.90
74513;DHT22;62992;52.052;8.550;2022-09-27T14:57:25;11.70;99.90
74513;DHT22;62992;52.052;8.550;2022-09-27T14:59:53;11.50;99.90
74513;DHT22;62992;52.052;8.550;2022-09-27T15:02:20;11.50;99.90
74513;DHT22;62992;52.052;8.550;2022-09-27T15:04:48;11.40;99.90
74513;DHT22;62992;52.052;8.550;2022-09-27T15:07:17;11.30;99.90
74513;DHT22;62992;52.052;8.550;2022-09-27T15:09:44;11.20;99.90
74513;DHT22;62992;52.052;8.550;2022-09-27T15:12:13;11.30;99.90
74513;DHT22;62992;52.052;8.550;2022-09-27T15:14:40;11.10;99.90
74513;DHT22;62992;52.052;8.550;2022-09-27T15:17:16;11.00;99.90
74513;DHT22;62992;52.052;8.550;2022-09-27T15:20:25;10.90;99.90
74513;DHT22;62992;52.052;8.550;2022-09-27T15:22:56;11.00;99.90
74513;DHT22;62992;52.052;8.550;2022-09-27T15:28:20;10.90;99.90
74513;DHT22;62992;52.052;8.550;2022-09-27T15:30:56;10.80;99.90
74513;DHT22;62992;52.052;8.550;2022-09-27T15:33:29;10.70;99.90
74513;DHT22;62992;52.052;8.550;2022-09-27T15:36:02;10.80;99.90
74513;DHT22;62992;52.052;8.550;2022-09-27T15:38:29;10.80;99.90
74513;DHT22;62992;52.052;8.550;2022-09-27T15:41:04;10.80;99.90
74513;DHT22;62992;52.052;8.550;2022-09-27T15:43:39;10.80;99.90
74513;DHT22;62992;52.052;8.550;2022-09-27T15:51:45;10.70;99.90
74513;DHT22;62992;52.052;8.550;2022-09-27T15:54:11;10.60;99.90
74513;DHT22;62992;52.052;8.550;2022-09-27T15:56:40;10.50;99.90
74513;DHT22;62992;52.052;8.550;2022-09-27T15:59:11;10.40;99.90
74513;DHT22;62992;52.052;8.550;2022-09-27T16:01:41;10.40;99.90
74513;DHT22;62992;52.052;8.550;2022-09-27T16:04:08;10.50;99.90
74513;DHT22;62992;52.052;8.550;2022-09-27T16:06:33;10.40;99.90
74513;DHT22;62992;52.052;8.550;2022-09-27T16:08:59;10.40;99.90
74513;DHT22;62992;52.052;8.550;2022-09-27T16:11:24;10.50;99.90
74513;DHT22;62992;52.052;8.550;2022-09-27T16:13:50;10.40;99.90
74513;DHT22;62992;52.052;8.550;2022-09-27T16:16:19;10.40;99.90
74513;DHT22;62992;52.052;8.550;2022-09-27T16:18:46;10.40;99.90
74513;DHT22;62992;52.052;8.550;2022-09-27T16:21:12;10.50;99.90
74513;DHT22;62992;52.052;8.550;2022-09-27T16:23:38;10.40;99.90
74513;DHT22;62992;52.052;8.550;2022-09-27T16:26:04;10.40;99.90
74513;DHT22;62992;52.052;8.550;2022-09-27T16:28:31;10.40;99.90
74513;DHT22;62992;52.052;8.550;2022-09-27T16:31:04;10.40;99.90
74513;DHT22;62992;52.052;8.550;2022-09-27T16:33:30;10.40;99.90
74513;DHT22;62992;52.052;8.550;2022-09-27T16:35:58;10.40;99.90
74513;DHT22;62992;52.052;8.550;2022-09-27T16:38:26;10.40;99.90
74513;DHT22;62992;52.052;8.550;2022-09-27T16:40:52;10.40;99.90
74513;DHT22;62992;52.052;8.550;2022-09-27T16:43:18;10.40;99.90
74513;DHT22;62992;52.052;8.550;2022-09-27T16:45:44;10.30;99.90
74513;DHT22;62992;52.052;8.550;2022-09-27T16:48:10;10.30;99.90
74513;DHT22;62992;52.052;8.550;2022-09-27T16:50:36;10.30;99.90
74513;DHT22;62992;52.052;8.550;2022-09-27T16:53:20;10.30;99.90
74513;DHT22;62992;52.052;8.550;2022-09-27T16:55:46;10.20;99.90
74513;DHT22;62992;52.052;8.550;2022-09-27T16:58:12;10.30;99.90
74513;DHT22;62992;52.052;8.550;2022-09-27T17:00:37;10.20;99.90
74513;DHT22;62992;52.052;8.550;2022-09-27T17:03:06;10.20;99.90
74513;DHT22;62992;52.052;8.550;2022-09-27T17:05:33;10.30;99.90
74513;DHT22;62992;52.052;8.550;2022-09-27T17:07:59;10.20;99.90
74513;DHT22;62992;52.052;8.550;2022-09-27T17:10:26;10.20;99.90
74513;DHT22;62992;52.052;8.550;2022-09-27T17:12:52;10.20;99.90
74513;DHT22;62992;52.052;8.550;2022-09-27T17:15:19;10.10;99.90
74513;DHT22;62992;52.052;8.550;2022-09-27T17:17:49;10.10;99.90
74513;DHT22;62992;52.052;8.550;2022-09-27T17:20:15;10.20;99.90
74513;DHT22;62992;52.052;8.550;2022-09-27T17:22:41;10.20;99.90
74513;DHT22;62992;52.052;8.550;2022-09-27T17:25:07;10.10;99.90
74513;DHT22;62992;52.052;8.550;2022-09-27T17:27:33;10.10;99.90
74513;DHT22;62992;52.052;8.550;2022-09-27T17:29:59;10.00;99.90
74513;DHT22;62992;52.052;8.550;2022-09-27T17:32:25;10.00;99.90
74513;DHT22;62992;52.052;8.550;2022-09-27T17:34:51;10.00;99.90
74513;DHT22;62992;52.052;8.550;2022-09-27T17:37:20;10.00;99.90
74513;DHT22;62992;52.052;8.550;2022-09-27T17:39:46;10.00;99.90
74513;DHT22;62992;52.052;8.550;2022-09-27T17:42:12;10.00;99.90
74513;DHT22;62992;52.052;8.550;2022-09-27T17:44:37;9.90;99.90
74513;DHT22;62992;52.052;8.550;2022-09-27T17:47:03;9.90;99.90
74513;DHT22;62992;52.052;8.550;2022-09-27T17:49:48;9.90;99.90
74513;DHT22;62992;52.052;8.550;2022-09-27T17:52:32;9.90;99.90
74513;DHT22;62992;52.052;8.550;2022-09-27T17:54:59;9.90;99.90
74513;DHT22;62992;52.052;8.550;2022-09-27T17:57:24;9.90;99.90
74513;DHT22;62992;52.052;8.550;2022-09-27T17:59:51;9.90;99.90
74513;DHT22;62992;52.052;8.550;2022-09-27T18:02:18;9.90;99.90
74513;DHT22;62992;52.052;8.550;2022-09-27T18:04:45;10.00;99.90
74513;DHT22;62992;52.052;8.550;2022-09-27T18:07:10;10.00;99.90
74513;DHT22;62992;52.052;8.550;2022-09-27T18:09:39;10.00;99.90
74513;DHT22;62992;52.052;8.550;2022-09-27T18:12:06;10.00;99.90
74513;DHT22;62992;52.052;8.550;2022-09-27T18:14:31;10.00;99.90
74513;DHT22;62992;52.052;8.550;2022-09-27T18:16:57;10.00;99.90
74513;DHT22;62992;52.052;8.550;2022-09-27T18:19:23;10.00;99.90
74513;DHT22;62992;52.052;8.550;2022-09-27T18:21:49;10.00;99.90
74513;DHT22;62992;52.052;8.550;2022-09-27T18:24:15;10.00;99.90
74513;DHT22;62992;52.052;8.550;2022-09-27T18:26:41;9.90;99.90
74513;DHT22;62992;52.052;8.550;2022-09-27T18:29:14;9.90;99.90
74513;DHT22;62992;52.052;8.550;2022-09-27T18:31:40;9.90;99.90
74513;DHT22;62992;52.052;8.550;2022-09-27T18:34:07;9.90;99.90
74513;DHT22;62992;52.052;8.550;2022-09-27T18:36:34;9.90;99.90
74513;DHT22;62992;52.052;8.550;2022-09-27T18:39:04;9.80;99.90